Terminal Aerodrome Forecast
Issued by NWS Twin Cities, MN

Home | Current Version | Previous Version | Text Only | Print | Product List | Glossary Off
Versions: 1 2 3 4 5 6 7 8 9 10 11 12 13 14 15 16 17 18 19 20 21 22 23 24 25 26 27

000
FTUS43 KMPX 221400 AAA
TAFMSP
TAF AMD
KMSP 221435Z 2215/2318 35010KT P6SM SKC
     FM222200 01007KT P6SM SCT250
     FM230100 06006KT P6SM BKN200
     FM230300 11007KT P6SM BKN200
     FM231200 12009KT P6SM BKN070 OVC100
     FM231500 12012KT P6SM VCSH SCT030 OVC060=

USA.gov is the U.S. government's official web portal to all federal, state and local government web resources and services.